createdAt,value
2022-12-04T00:00:27.400Z,38.25
2022-12-04T00:02:54.336Z,34.70
2022-12-04T00:05:21.280Z,38.17
2022-12-04T00:07:48.522Z,33.63
2022-12-04T00:10:15.542Z,38.70
2022-12-04T00:12:42.360Z,33.28
2022-12-04T00:15:25.158Z,36.65
2022-12-04T00:17:52.798Z,34.28
2022-12-04T00:20:20.114Z,29.48
2022-12-04T00:22:47.031Z,37.40
2022-12-04T00:25:14.028Z,36.75
2022-12-04T00:27:43.831Z,27.30
2022-12-04T00:30:11.236Z,34.35
2022-12-04T00:32:38.007Z,30.73
2022-12-04T00:35:05.159Z,28.60
2022-12-04T00:37:33.440Z,34.03
2022-12-04T00:40:00.282Z,44.70
2022-12-04T00:42:27.081Z,34.45
2022-12-04T00:44:54.043Z,37.95
2022-12-04T00:47:20.916Z,30.63
2022-12-04T00:49:47.753Z,38.25
2022-12-04T00:52:14.553Z,40.88
2022-12-04T00:54:41.448Z,29.48
2022-12-04T00:57:08.285Z,35.78
2022-12-04T00:59:35.113Z,30.02
2022-12-04T01:02:01.868Z,32.50
2022-12-04T01:04:28.726Z,32.03
2022-12-04T01:06:58.067Z,30.48
2022-12-04T01:09:28.486Z,32.88
2022-12-04T01:11:55.272Z,34.95
2022-12-04T01:14:22.082Z,40.35
2022-12-04T01:16:49.037Z,33.80
2022-12-04T01:19:15.907Z,29.92
2022-12-04T01:21:42.874Z,31.58
2022-12-04T01:24:09.764Z,33.83
2022-12-04T01:26:36.561Z,28.10
2022-12-04T01:29:04.078Z,30.63
2022-12-04T01:31:31.687Z,28.85
2022-12-04T01:33:58.809Z,33.08
2022-12-04T01:36:27.813Z,28.88
2022-12-04T01:38:55.911Z,32.65
2022-12-04T01:41:26.492Z,29.52
2022-12-04T01:44:20.437Z,31.45
2022-12-04T01:46:51.841Z,27.52
2022-12-04T01:49:25.699Z,28.75
2022-12-04T01:52:16.299Z,33.08
2022-12-04T01:54:47.559Z,27.42
2022-12-04T01:57:23.407Z,26.57
2022-12-04T01:59:58.099Z,34.35
2022-12-04T02:02:39.646Z,30.30
2022-12-04T02:05:09.632Z,38.42
2022-12-04T02:07:39.121Z,31.23
2022-12-04T02:10:08.946Z,31.25
2022-12-04T02:12:54.010Z,36.35
2022-12-04T02:15:34.879Z,32.50
2022-12-04T02:18:29.440Z,36.80
2022-12-04T02:21:13.665Z,36.72
2022-12-04T02:24:12.506Z,37.25
2022-12-04T02:26:51.521Z,38.03
2022-12-04T02:29:21.334Z,44.88
2022-12-04T02:32:20.126Z,48.25
2022-12-04T02:34:57.426Z,46.20
2022-12-04T02:37:31.808Z,42.00
2022-12-04T02:40:34.201Z,50.03
2022-12-04T02:43:12.382Z,46.53
2022-12-04T02:45:45.917Z,51.80
2022-12-04T02:48:18.515Z,70.32
2022-12-04T02:50:50.971Z,56.72
2022-12-04T02:53:26.673Z,57.78
2022-12-04T02:56:01.781Z,59.88
2022-12-04T02:58:54.127Z,66.50
2022-12-04T03:01:27.138Z,70.93
2022-12-04T03:04:07.256Z,54.60
2022-12-04T03:06:38.957Z,71.82
2022-12-04T03:09:17.458Z,52.15
2022-12-04T03:11:52.370Z,47.13
2022-12-04T03:14:29.522Z,38.28
2022-12-04T03:17:02.790Z,42.83
2022-12-04T03:19:38.827Z,35.42
2022-12-04T03:22:11.046Z,37.97
2022-12-04T03:27:20.404Z,37.90
2022-12-04T03:29:53.822Z,38.22
2022-12-04T03:32:33.754Z,42.00
2022-12-04T03:35:06.629Z,40.58
2022-12-04T03:37:45.428Z,41.30
2022-12-04T03:40:37.746Z,48.90
2022-12-04T03:43:16.515Z,41.10
2022-12-04T03:46:09.953Z,43.05
2022-12-04T03:48:36.793Z,35.70
2022-12-04T03:51:16.734Z,39.53
2022-12-04T03:54:08.143Z,35.10
2022-12-04T03:56:44.260Z,31.17
2022-12-04T03:59:21.685Z,34.55
2022-12-04T04:01:50.811Z,31.70
2022-12-04T04:04:30.407Z,28.77
2022-12-04T04:07:04.784Z,34.63
2022-12-04T04:09:35.827Z,33.00
2022-12-04T04:12:15.153Z,31.58
2022-12-04T04:15:03.945Z,30.73
2022-12-04T04:17:53.301Z,30.45
2022-12-04T04:20:43.011Z,29.13
2022-12-04T04:23:31.060Z,31.05
2022-12-04T04:26:01.879Z,30.77
2022-12-04T04:28:40.615Z,31.40
2022-12-04T04:31:10.968Z,33.38
2022-12-04T04:33:47.604Z,30.08
2022-12-04T04:36:49.140Z,28.23
2022-12-04T04:39:41.953Z,31.35
2022-12-04T04:42:17.633Z,31.10
2022-12-04T04:45:16.258Z,33.65
2022-12-04T04:48:08.812Z,31.02
2022-12-04T04:53:16.219Z,30.38
2022-12-04T04:55:43.713Z,32.33
2022-12-04T04:58:17.005Z,30.55
2022-12-04T05:01:11.711Z,33.30
2022-12-04T05:03:39.053Z,29.92
2022-12-04T05:06:06.687Z,32.92
2022-12-04T05:08:34.437Z,29.77
2022-12-04T05:11:01.651Z,33.70
2022-12-04T05:13:30.329Z,33.83
2022-12-04T05:16:07.334Z,27.67
2022-12-04T05:18:35.501Z,31.95
2022-12-04T05:21:09.910Z,29.23
2022-12-04T05:23:36.733Z,31.25
2022-12-04T05:26:05.591Z,31.15
2022-12-04T05:28:32.395Z,30.95
2022-12-04T05:31:02.746Z,29.38
2022-12-04T05:33:30.254Z,30.60
2022-12-04T05:36:11.161Z,34.63
2022-12-04T05:38:38.030Z,28.65
2022-12-04T05:41:06.326Z,32.05
2022-12-04T05:43:33.847Z,30.20
2022-12-04T05:46:05.500Z,31.73
2022-12-04T05:48:33.242Z,25.48
2022-12-04T05:51:00.169Z,25.42
2022-12-04T05:53:26.945Z,28.98
2022-12-04T05:56:02.217Z,30.70
2022-12-04T05:58:29.615Z,31.83
2022-12-04T06:00:56.646Z,31.95
2022-12-04T06:03:23.513Z,32.90
2022-12-04T06:05:50.387Z,26.83
2022-12-04T06:08:17.458Z,24.48
2022-12-04T06:10:44.357Z,34.58
2022-12-04T06:13:11.143Z,34.80
2022-12-04T06:15:39.825Z,30.35
2022-12-04T06:18:07.188Z,28.10
2022-12-04T06:20:34.660Z,34.78
2022-12-04T06:23:01.749Z,27.80
2022-12-04T06:25:28.629Z,28.90
2022-12-04T06:27:55.467Z,30.05
2022-12-04T06:30:23.331Z,27.77
2022-12-04T06:32:50.114Z,28.83
2022-12-04T06:35:16.993Z,30.90
2022-12-04T06:37:43.912Z,32.70
2022-12-04T06:40:11.115Z,25.67
2022-12-04T06:42:37.952Z,31.98
2022-12-04T06:45:05.467Z,33.42
2022-12-04T06:47:33.902Z,30.13
2022-12-04T06:50:00.793Z,39.97
2022-12-04T06:52:27.579Z,31.60
2022-12-04T06:54:54.578Z,38.95
2022-12-04T06:57:21.407Z,31.50
2022-12-04T06:59:48.204Z,30.25
2022-12-04T07:02:15.035Z,29.25
2022-12-04T07:04:41.876Z,34.25
2022-12-04T07:07:10.108Z,32.00
2022-12-04T07:09:37.150Z,34.63
2022-12-04T07:12:04.201Z,32.47
2022-12-04T07:14:31.055Z,36.65
2022-12-04T07:16:58.523Z,28.60
2022-12-04T07:19:25.433Z,34.72
2022-12-04T07:21:52.218Z,33.22
2022-12-04T07:24:19.143Z,36.90
2022-12-04T07:26:46.378Z,28.95
2022-12-04T07:29:13.649Z,30.73
2022-12-04T07:31:40.644Z,32.05
2022-12-04T07:34:07.880Z,38.92
2022-12-04T07:36:34.663Z,32.47
2022-12-04T07:39:01.490Z,35.38
2022-12-04T07:41:28.272Z,34.50
2022-12-04T07:43:55.178Z,30.65
2022-12-04T07:46:24.889Z,35.63
2022-12-04T07:48:51.908Z,29.30
2022-12-04T07:51:21.934Z,32.88
2022-12-04T07:53:49.949Z,35.22
2022-12-04T07:56:17.821Z,40.78
2022-12-04T07:58:44.633Z,29.98
2022-12-04T08:01:13.380Z,31.75
2022-12-04T08:03:47.056Z,37.47
2022-12-04T08:06:15.226Z,32.30
2022-12-04T08:08:42.020Z,34.20
2022-12-04T08:11:14.617Z,38.60
2022-12-04T08:13:41.843Z,42.53
2022-12-04T08:16:10.496Z,43.03
2022-12-04T08:18:37.576Z,40.30
2022-12-04T08:21:07.101Z,39.90
2022-12-04T08:23:34.701Z,38.20
2022-12-04T08:26:02.374Z,46.05
2022-12-04T08:28:29.382Z,44.85
2022-12-04T08:30:56.395Z,35.80
2022-12-04T08:33:23.298Z,49.58
2022-12-04T08:35:50.116Z,40.95
2022-12-04T08:38:16.938Z,44.53
2022-12-04T08:40:43.742Z,45.05
2022-12-04T08:43:10.604Z,59.08
2022-12-04T08:45:37.442Z,44.80
2022-12-04T08:48:04.433Z,43.63
2022-12-04T08:50:31.302Z,47.47
2022-12-04T08:52:58.202Z,47.10
2022-12-04T08:55:25.114Z,36.88
2022-12-04T08:57:53.277Z,40.00
2022-12-04T09:00:20.479Z,40.47
2022-12-04T09:02:49.830Z,52.15
2022-12-04T09:05:17.537Z,36.53
2022-12-04T09:07:44.364Z,38.58
2022-12-04T09:10:12.360Z,38.83
2022-12-04T09:12:39.354Z,36.58
2022-12-04T09:15:07.540Z,51.08
2022-12-04T09:17:36.192Z,40.78
2022-12-04T09:20:04.757Z,43.75
2022-12-04T09:22:57.749Z,39.58
2022-12-04T09:25:20.240Z,54.38
2022-12-04T09:27:47.112Z,54.17
2022-12-04T09:30:14.196Z,57.05
2022-12-04T09:32:40.980Z,42.70
2022-12-04T09:35:08.355Z,36.30
2022-12-04T09:37:36.729Z,38.38
2022-12-04T09:40:07.417Z,40.33
2022-12-04T09:42:49.746Z,34.10
2022-12-04T09:47:52.177Z,34.80
2022-12-04T09:50:26.291Z,29.50
2022-12-04T09:53:02.564Z,29.40
2022-12-04T09:55:38.492Z,31.23
2022-12-04T09:58:10.342Z,30.00
2022-12-04T10:00:41.690Z,28.38
2022-12-04T10:03:15.981Z,32.10
2022-12-04T10:06:06.904Z,30.92
2022-12-04T10:08:43.154Z,30.42
2022-12-04T10:11:34.482Z,35.28
2022-12-04T10:14:26.231Z,29.92
2022-12-04T10:17:21.912Z,39.47
2022-12-04T10:20:07.593Z,36.50
2022-12-04T10:22:49.936Z,35.60
2022-12-04T10:28:21.184Z,32.78
2022-12-04T10:30:50.628Z,33.25
2022-12-04T10:33:41.313Z,30.80
2022-12-04T10:36:15.890Z,34.55
2022-12-04T10:38:49.394Z,34.13
2022-12-04T10:41:59.709Z,33.20
2022-12-04T10:44:26.643Z,34.53
2022-12-04T10:47:03.330Z,38.30
2022-12-04T10:49:32.619Z,33.83
2022-12-04T10:51:59.409Z,45.58
2022-12-04T10:54:48.927Z,41.35
2022-12-04T10:57:16.728Z,37.50
2022-12-04T10:59:55.115Z,36.42
2022-12-04T11:02:31.088Z,34.88
2022-12-04T11:05:04.391Z,36.53
2022-12-04T11:07:34.965Z,35.20
2022-12-04T11:10:19.541Z,35.42
2022-12-04T11:12:57.506Z,42.42
2022-12-04T11:15:24.826Z,41.92
2022-12-04T11:17:55.507Z,39.13
2022-12-04T11:20:29.698Z,44.30
2022-12-04T11:22:59.002Z,38.65
2022-12-04T11:25:27.990Z,37.67
2022-12-04T11:28:01.474Z,37.45
2022-12-04T11:30:38.132Z,35.22
2022-12-04T11:33:14.645Z,40.10
2022-12-04T11:35:41.660Z,40.15
2022-12-04T11:38:16.753Z,37.53
2022-12-04T11:40:48.855Z,39.60
2022-12-04T11:43:17.732Z,44.88
2022-12-04T11:46:02.147Z,38.85
2022-12-04T11:48:41.352Z,37.05
2022-12-04T11:51:25.554Z,34.35
2022-12-04T11:54:09.308Z,37.70
2022-12-04T11:56:41.218Z,41.58
2022-12-04T11:59:55.783Z,39.92
2022-12-04T12:02:34.676Z,36.63
2022-12-04T12:05:20.357Z,37.67
2022-12-04T12:08:05.639Z,43.20
2022-12-04T12:10:59.491Z,48.35
2022-12-04T12:13:32.304Z,62.92
2022-12-04T12:16:23.305Z,51.17
2022-12-04T12:19:04.922Z,43.63
2022-12-04T12:22:09.262Z,42.92
2022-12-04T12:25:03.425Z,43.20
2022-12-04T12:27:57.992Z,49.78
2022-12-04T12:30:28.906Z,58.72
2022-12-04T12:32:58.858Z,39.88
2022-12-04T12:35:25.715Z,46.70
2022-12-04T12:38:02.358Z,51.10
2022-12-04T12:40:34.993Z,41.50
2022-12-04T12:43:19.670Z,62.88
2022-12-04T12:46:01.814Z,72.35
2022-12-04T12:48:58.292Z,74.28
2022-12-04T12:51:37.222Z,70.28
2022-12-04T12:54:39.107Z,72.50
2022-12-04T12:57:18.676Z,58.97
2022-12-04T12:59:54.185Z,61.65
2022-12-04T13:02:30.243Z,46.50
2022-12-04T13:05:10.203Z,64.50
2022-12-04T13:07:43.165Z,50.38
2022-12-04T13:10:28.340Z,50.92
2022-12-04T13:13:06.753Z,51.10
2022-12-04T13:15:45.565Z,50.38
2022-12-04T13:18:29.142Z,53.88
2022-12-04T13:21:00.830Z,41.45
2022-12-04T13:23:46.201Z,45.83
2022-12-04T13:26:47.787Z,42.10
2022-12-04T13:29:32.427Z,46.47
2022-12-04T13:32:31.319Z,50.20
2022-12-04T13:35:08.406Z,36.17
2022-12-04T13:37:56.660Z,42.80
2022-12-04T13:40:26.856Z,47.90
2022-12-04T13:43:04.758Z,47.47
2022-12-04T13:45:33.879Z,42.47
2022-12-04T13:48:03.384Z,48.75
2022-12-04T13:50:35.465Z,50.67
2022-12-04T13:53:02.840Z,56.05
2022-12-04T13:55:36.981Z,50.53
2022-12-04T13:58:27.974Z,44.65
2022-12-04T14:01:06.897Z,42.67
2022-12-04T14:03:49.358Z,45.85
2022-12-04T14:08:57.970Z,62.42
2022-12-04T14:11:26.231Z,48.92
2022-12-04T14:13:56.712Z,47.50
2022-12-04T14:16:40.469Z,51.25
2022-12-04T14:19:08.402Z,47.50
2022-12-04T14:21:47.516Z,55.65
2022-12-04T14:24:38.403Z,66.32
2022-12-04T14:27:42.238Z,55.65
2022-12-04T14:30:18.099Z,52.35
2022-12-04T14:32:50.823Z,62.10
2022-12-04T14:35:21.338Z,67.65
2022-12-04T14:38:06.747Z,66.22
2022-12-04T14:40:45.757Z,56.42
2022-12-04T14:43:38.479Z,62.00
2022-12-04T14:46:30.672Z,64.70
2022-12-04T14:48:57.490Z,46.42
2022-12-04T14:51:43.456Z,59.72
2022-12-04T14:54:36.330Z,68.35
2022-12-04T14:57:15.280Z,47.53
2022-12-04T14:59:46.733Z,44.30
2022-12-04T15:02:34.667Z,41.97
2022-12-04T15:05:02.909Z,41.28
2022-12-04T15:07:31.802Z,40.90
2022-12-04T15:10:20.232Z,43.03
2022-12-04T15:12:52.128Z,45.05
2022-12-04T15:15:28.142Z,42.97
2022-12-04T15:18:15.847Z,41.88
2022-12-04T15:20:48.760Z,34.15
2022-12-04T15:23:41.455Z,35.60
2022-12-04T15:26:12.819Z,38.97
2022-12-04T15:28:48.901Z,34.67
2022-12-04T15:31:47.050Z,36.97
2022-12-04T15:34:17.326Z,34.38
2022-12-04T15:37:07.749Z,33.40
2022-12-04T15:39:38.049Z,42.00
2022-12-04T15:42:24.462Z,37.80
2022-12-04T15:45:03.045Z,35.38
2022-12-04T15:47:36.782Z,44.17
2022-12-04T15:50:15.811Z,42.17
2022-12-04T15:52:50.170Z,34.65
2022-12-04T15:55:18.925Z,34.70
2022-12-04T15:58:14.299Z,36.78
2022-12-04T16:00:42.912Z,36.55
2022-12-04T16:03:26.233Z,31.10
2022-12-04T16:06:26.967Z,34.35
2022-12-04T16:09:12.943Z,28.20
2022-12-04T16:11:41.069Z,38.70
2022-12-04T16:14:13.890Z,36.50
2022-12-04T16:16:43.771Z,42.72
2022-12-04T16:19:22.082Z,29.75
2022-12-04T16:21:49.272Z,30.65
2022-12-04T16:24:16.096Z,37.28
2022-12-04T16:26:42.883Z,30.80
2022-12-04T16:29:09.777Z,34.05
2022-12-04T16:31:38.137Z,30.90
2022-12-04T16:34:05.116Z,29.88
2022-12-04T16:36:32.180Z,29.92
2022-12-04T16:38:58.990Z,28.05
2022-12-04T16:41:25.775Z,30.60
2022-12-04T16:43:56.015Z,28.23
2022-12-04T16:46:25.255Z,26.38
2022-12-04T16:48:52.475Z,27.70
2022-12-04T16:51:27.033Z,31.52
2022-12-04T16:53:54.684Z,30.00
2022-12-04T16:56:22.358Z,28.83
2022-12-04T16:58:49.624Z,33.40
2022-12-04T17:01:21.902Z,30.42
2022-12-04T17:03:49.400Z,26.33
2022-12-04T17:06:16.703Z,29.40
2022-12-04T17:08:44.050Z,28.05
2022-12-04T17:11:15.964Z,29.25
2022-12-04T17:13:43.192Z,27.73
2022-12-04T17:16:14.581Z,25.13
2022-12-04T17:18:42.159Z,26.33
2022-12-04T17:21:11.346Z,25.25
2022-12-04T17:23:38.349Z,26.23
2022-12-04T17:26:07.927Z,27.00
2022-12-04T17:28:36.486Z,26.23
2022-12-04T17:31:06.145Z,26.38
2022-12-04T17:33:33.406Z,25.77
2022-12-04T17:36:00.427Z,76.97
2022-12-04T17:38:28.228Z,30.50
2022-12-04T17:41:02.341Z,39.92
2022-12-04T17:43:30.291Z,46.17
2022-12-04T17:45:57.923Z,28.10
2022-12-04T17:48:25.546Z,33.15
2022-12-04T17:51:08.111Z,27.45
2022-12-04T17:53:35.562Z,23.25
2022-12-04T17:56:08.442Z,59.47
2022-12-04T17:58:36.287Z,29.10
2022-12-04T18:01:06.034Z,27.38
2022-12-04T18:03:33.525Z,31.80
2022-12-04T18:06:01.482Z,23.67
2022-12-04T18:08:29.544Z,32.20
2022-12-04T18:10:57.304Z,26.15
2022-12-04T18:13:24.556Z,26.27
2022-12-04T18:15:51.395Z,33.70
2022-12-04T18:18:18.220Z,27.48
2022-12-04T18:20:45.038Z,34.53
2022-12-04T18:23:11.895Z,37.28
2022-12-04T18:25:38.737Z,31.35
2022-12-04T18:28:05.564Z,28.90
2022-12-04T18:30:34.662Z,31.70
2022-12-04T18:33:01.463Z,30.80
2022-12-04T18:35:28.337Z,32.90
2022-12-04T18:37:55.114Z,32.55
2022-12-04T18:40:21.963Z,57.42
2022-12-04T18:42:48.742Z,25.52
2022-12-04T18:45:15.686Z,30.63
2022-12-04T18:47:42.481Z,44.15
2022-12-04T18:50:09.678Z,28.13
2022-12-04T18:52:38.423Z,23.27
2022-12-04T18:55:05.597Z,24.45
2022-12-04T18:57:32.395Z,27.88
2022-12-04T18:59:59.401Z,24.23
2022-12-04T19:02:26.429Z,20.15
2022-12-04T19:04:53.539Z,21.35
2022-12-04T19:07:20.352Z,23.10
2022-12-04T19:10:10.311Z,20.63
2022-12-04T19:12:33.988Z,20.83
2022-12-04T19:15:00.817Z,25.13
2022-12-04T19:17:27.724Z,22.52
2022-12-04T19:19:54.932Z,27.90
2022-12-04T19:22:22.031Z,22.15
2022-12-04T19:24:48.917Z,21.67
2022-12-04T19:27:15.821Z,21.90
2022-12-04T19:29:43.532Z,22.75
2022-12-04T19:32:11.071Z,23.67
2022-12-04T19:34:38.106Z,34.00
2022-12-04T19:37:05.264Z,21.80
2022-12-04T19:39:32.136Z,26.63
2022-12-04T19:41:58.967Z,26.85
2022-12-04T19:44:48.038Z,19.63
2022-12-04T19:47:12.687Z,38.53
2022-12-04T19:49:39.562Z,26.95
2022-12-04T19:52:06.647Z,33.78
2022-12-04T19:54:33.582Z,23.65
2022-12-04T19:57:01.185Z,19.13
2022-12-04T19:59:33.097Z,15.80
2022-12-04T20:02:03.048Z,20.67
2022-12-04T20:04:29.902Z,19.95
2022-12-04T20:06:56.824Z,19.67
2022-12-04T20:09:25.207Z,18.02
2022-12-04T20:11:52.077Z,19.30
2022-12-04T20:14:19.005Z,20.55
2022-12-04T20:16:46.649Z,18.63
2022-12-04T20:19:15.561Z,20.45
2022-12-04T20:21:43.718Z,19.40
2022-12-04T20:24:13.777Z,19.75
2022-12-04T20:26:42.904Z,20.00
2022-12-04T20:29:13.222Z,24.23
2022-12-04T20:31:42.291Z,30.75
2022-12-04T20:34:13.693Z,18.85
2022-12-04T20:36:42.936Z,21.02
2022-12-04T20:39:11.306Z,19.00
2022-12-04T20:41:39.931Z,22.92
2022-12-04T20:44:09.501Z,20.60
2022-12-04T20:46:39.135Z,23.65
2022-12-04T20:49:08.628Z,26.33
2022-12-04T20:51:38.232Z,23.00
2022-12-04T20:54:06.179Z,22.00
2022-12-04T20:56:35.600Z,22.42
2022-12-04T20:59:05.958Z,21.40
2022-12-04T21:01:33.490Z,20.13
2022-12-04T21:04:01.668Z,23.75
2022-12-04T21:06:35.990Z,20.08
2022-12-04T21:09:10.239Z,25.42
2022-12-04T21:11:42.580Z,23.20
2022-12-04T21:14:38.983Z,52.97
2022-12-04T21:17:07.529Z,33.20
2022-12-04T21:19:34.394Z,39.33
2022-12-04T21:22:01.388Z,22.23
2022-12-04T21:24:30.305Z,31.80
2022-12-04T21:26:57.117Z,24.35
2022-12-04T21:29:24.194Z,25.70
2022-12-04T21:31:51.006Z,28.38
2022-12-04T21:34:18.161Z,32.75
2022-12-04T21:36:46.442Z,32.70
2022-12-04T21:39:14.453Z,27.65
2022-12-04T21:42:00.286Z,28.40
2022-12-04T21:44:27.522Z,24.15
2022-12-04T21:46:54.402Z,22.15
2022-12-04T21:49:21.259Z,20.30
2022-12-04T21:51:57.371Z,22.27
2022-12-04T21:54:25.876Z,25.70
2022-12-04T21:56:52.696Z,29.40
2022-12-04T21:59:19.674Z,21.98
2022-12-04T22:01:46.534Z,19.75
2022-12-04T22:04:13.412Z,24.92
2022-12-04T22:06:40.258Z,22.73
2022-12-04T22:09:09.663Z,23.17
2022-12-04T22:11:37.158Z,19.45
2022-12-04T22:14:04.815Z,22.00
2022-12-04T22:16:34.622Z,22.05
2022-12-04T22:21:31.085Z,17.95
2022-12-04T22:23:59.582Z,22.33
2022-12-04T22:26:27.813Z,23.17
2022-12-04T22:28:55.263Z,18.95
2022-12-04T22:31:24.684Z,20.90
2022-12-04T22:33:53.538Z,22.98
2022-12-04T22:36:23.449Z,20.25
2022-12-04T22:39:09.918Z,22.65
2022-12-04T22:41:37.886Z,22.77
2022-12-04T22:44:05.724Z,22.58
2022-12-04T22:46:32.916Z,24.30
2022-12-04T22:49:00.461Z,21.83
2022-12-04T22:51:27.730Z,23.42
2022-12-04T22:53:57.181Z,23.98
2022-12-04T22:56:25.340Z,23.70
2022-12-04T22:58:53.601Z,23.65
2022-12-04T23:01:29.063Z,24.77
2022-12-04T23:03:56.568Z,23.17
2022-12-04T23:06:26.475Z,20.77
2022-12-04T23:08:58.942Z,19.55
2022-12-04T23:11:27.018Z,18.73
2022-12-04T23:13:56.144Z,18.88
2022-12-04T23:16:24.325Z,19.67
2022-12-04T23:18:51.317Z,18.90
2022-12-04T23:21:19.493Z,20.65
2022-12-04T23:23:47.633Z,19.48
2022-12-04T23:26:17.258Z,17.38
2022-12-04T23:28:44.727Z,24.15
2022-12-04T23:31:12.268Z,23.88
2022-12-04T23:33:40.246Z,18.92
2022-12-04T23:36:09.441Z,25.38
2022-12-04T23:38:37.977Z,24.00
2022-12-04T23:41:15.240Z,23.30
2022-12-04T23:43:42.885Z,23.35
2022-12-04T23:46:11.905Z,24.50
2022-12-04T23:48:43.818Z,20.67
2022-12-04T23:51:12.408Z,22.27
2022-12-04T23:53:39.323Z,21.95
2022-12-04T23:56:15.479Z,24.63
2022-12-04T23:58:43.461Z,21.05
